createdAt,value
2017-11-05T00:01:59.978Z,24.93
2017-11-05T00:04:27.282Z,23.73
2017-11-05T00:06:54.628Z,23.70
2017-11-05T00:09:21.946Z,25.17
2017-11-05T00:11:49.270Z,25.67
2017-11-05T00:14:16.582Z,25.00
2017-11-05T00:16:43.883Z,24.13
2017-11-05T00:19:11.203Z,24.50
2017-11-05T00:21:38.543Z,24.70
2017-11-05T00:24:05.865Z,24.80
2017-11-05T00:26:33.164Z,24.43
2017-11-05T00:29:00.504Z,26.23
2017-11-05T00:31:28.152Z,24.70
2017-11-05T00:33:55.496Z,24.23
2017-11-05T00:36:22.808Z,24.60
2017-11-05T00:38:50.163Z,26.50
2017-11-05T00:41:17.448Z,24.60
2017-11-05T00:43:44.772Z,25.57
2017-11-05T00:46:12.128Z,25.30
2017-11-05T00:48:39.458Z,25.37
2017-11-05T00:51:06.790Z,25.40
2017-11-05T00:53:34.169Z,25.50
2017-11-05T00:56:01.521Z,26.13
2017-11-05T00:58:28.847Z,24.93
2017-11-05T01:00:56.148Z,27.47
2017-11-05T01:03:23.473Z,26.10
2017-11-05T01:05:51.716Z,26.27
2017-11-05T01:08:19.029Z,26.23
2017-11-05T01:10:46.345Z,25.70
2017-11-05T01:13:13.660Z,27.20
2017-11-05T01:15:40.988Z,26.40
2017-11-05T01:18:08.361Z,28.60
2017-11-05T01:20:35.689Z,27.40
2017-11-05T01:23:03.005Z,26.00
2017-11-05T01:25:30.460Z,26.77
2017-11-05T01:27:57.768Z,27.10
2017-11-05T01:30:25.096Z,29.90
2017-11-05T01:32:52.414Z,28.27
2017-11-05T01:35:19.737Z,27.40
2017-11-05T01:37:47.043Z,28.67
2017-11-05T01:40:14.401Z,28.83
2017-11-05T01:42:41.749Z,27.53
2017-11-05T01:45:09.096Z,26.53
2017-11-05T01:47:36.419Z,28.60
2017-11-05T01:50:03.732Z,25.67
2017-11-05T01:52:31.989Z,29.37
2017-11-05T01:54:59.290Z,28.77
2017-11-05T01:57:26.638Z,30.60
2017-11-05T01:59:54.229Z,27.60
2017-11-05T02:02:21.560Z,28.00
2017-11-05T02:04:48.871Z,29.20
2017-11-05T02:07:16.179Z,29.67
2017-11-05T02:09:45.484Z,28.47
2017-11-05T02:12:12.841Z,30.37
2017-11-05T02:14:40.160Z,28.27
2017-11-05T02:17:07.469Z,29.83
2017-11-05T02:19:34.788Z,28.93
2017-11-05T02:22:02.472Z,29.07
2017-11-05T02:24:30.608Z,29.50
2017-11-05T02:26:57.920Z,28.13
2017-11-05T02:29:25.269Z,30.03
2017-11-05T02:31:52.628Z,30.60
2017-11-05T02:34:19.968Z,28.73
2017-11-05T02:36:47.260Z,30.67
2017-11-05T02:39:14.576Z,29.90
2017-11-05T02:41:41.879Z,30.97
2017-11-05T02:44:09.222Z,29.87
2017-11-05T02:46:36.524Z,29.67
2017-11-05T02:49:03.866Z,30.70
2017-11-05T02:51:31.170Z,29.00
2017-11-05T02:53:58.515Z,30.10
2017-11-05T02:56:25.836Z,29.73
2017-11-05T02:58:53.282Z,29.40
2017-11-05T03:01:20.629Z,29.57
2017-11-05T03:03:48.004Z,29.80
2017-11-05T03:06:15.328Z,29.17
2017-11-05T03:08:42.624Z,29.97
2017-11-05T03:11:09.949Z,29.50
2017-11-05T03:13:37.256Z,30.27
2017-11-05T03:16:04.580Z,30.80
2017-11-05T03:18:31.927Z,28.80
2017-11-05T03:20:59.284Z,29.10
2017-11-05T03:23:26.607Z,28.13
2017-11-05T03:25:53.927Z,29.70
2017-11-05T03:28:21.245Z,28.47
2017-11-05T03:30:48.544Z,27.57
2017-11-05T03:33:15.867Z,27.57
2017-11-05T03:35:43.172Z,28.77
2017-11-05T03:38:11.438Z,27.63
2017-11-05T03:40:39.671Z,32.00
2017-11-05T03:43:06.996Z,27.93
2017-11-05T03:45:34.317Z,28.80
2017-11-05T03:48:01.787Z,27.57
2017-11-05T03:50:29.100Z,28.10
2017-11-05T03:52:56.418Z,29.20
2017-11-05T03:55:24.476Z,28.80
2017-11-05T03:57:51.800Z,28.27
2017-11-05T04:00:19.135Z,28.70
2017-11-05T04:02:46.495Z,28.20
2017-11-05T04:05:13.867Z,28.47
2017-11-05T04:07:41.686Z,28.73
2017-11-05T04:10:09.031Z,28.20
2017-11-05T04:12:36.364Z,27.70
2017-11-05T04:15:03.693Z,26.53
2017-11-05T04:17:31.320Z,27.87
2017-11-05T04:19:58.636Z,28.40
2017-11-05T04:22:25.963Z,27.57
2017-11-05T04:24:53.377Z,26.13
2017-11-05T04:27:21.653Z,26.93
2017-11-05T04:29:49.012Z,28.17
2017-11-05T04:32:16.316Z,26.40
2017-11-05T04:34:43.662Z,27.07
2017-11-05T04:37:11.002Z,29.00
2017-11-05T04:39:38.332Z,27.90
2017-11-05T04:42:05.635Z,27.07
2017-11-05T04:44:33.032Z,28.90
2017-11-05T04:47:00.387Z,28.30
2017-11-05T04:49:27.695Z,27.37
2017-11-05T04:51:55.024Z,27.70
2017-11-05T04:54:22.348Z,28.10
2017-11-05T04:56:49.685Z,28.13
2017-11-05T04:59:17.031Z,27.50
2017-11-05T05:01:44.357Z,28.00
2017-11-05T05:04:11.653Z,27.77
2017-11-05T05:06:38.974Z,25.57
2017-11-05T05:09:06.276Z,27.73
2017-11-05T05:11:33.596Z,26.50
2017-11-05T05:14:00.923Z,26.20
2017-11-05T05:16:28.264Z,25.50
2017-11-05T05:18:55.564Z,27.77
2017-11-05T05:21:22.874Z,27.00
2017-11-05T05:23:50.218Z,26.47
2017-11-05T05:26:17.529Z,27.60
2017-11-05T05:28:44.873Z,26.80
2017-11-05T05:31:12.212Z,25.00
2017-11-05T05:33:39.613Z,27.43
2017-11-05T05:36:06.937Z,26.00
2017-11-05T05:38:34.261Z,25.30
2017-11-05T05:41:01.580Z,27.60
2017-11-05T05:43:28.912Z,27.97
2017-11-05T05:45:56.220Z,25.57
2017-11-05T05:48:23.548Z,25.67
2017-11-05T05:50:50.848Z,25.70
2017-11-05T05:53:18.172Z,25.80
2017-11-05T05:55:45.484Z,26.40
2017-11-05T05:58:12.865Z,25.20
2017-11-05T06:00:40.177Z,25.90
2017-11-05T06:03:07.773Z,26.27
2017-11-05T06:05:35.534Z,26.00
2017-11-05T06:08:02.858Z,25.87
2017-11-05T06:10:31.175Z,26.20
2017-11-05T06:12:59.210Z,26.77
2017-11-05T06:15:26.513Z,27.30
2017-11-05T06:17:53.813Z,27.87
2017-11-05T06:20:21.144Z,25.70
2017-11-05T06:22:48.483Z,27.10
2017-11-05T06:25:15.804Z,28.20
2017-11-05T06:27:43.132Z,28.70
2017-11-05T06:30:10.476Z,29.00
2017-11-05T06:32:37.773Z,31.33
2017-11-05T06:35:05.081Z,29.17
2017-11-05T06:37:32.428Z,29.77
2017-11-05T06:39:59.747Z,27.43
2017-11-05T06:42:27.383Z,30.40
2017-11-05T06:44:54.680Z,31.43
2017-11-05T06:47:22.000Z,28.10
2017-11-05T06:49:49.322Z,28.77
2017-11-05T06:52:17.598Z,29.07
2017-11-05T06:54:44.911Z,28.13
2017-11-05T06:57:12.243Z,26.80
2017-11-05T06:59:39.548Z,27.17
2017-11-05T07:02:06.882Z,26.60
2017-11-05T07:04:34.221Z,27.50
2017-11-05T07:07:01.592Z,27.87
2017-11-05T07:09:28.908Z,28.57
2017-11-05T07:11:56.213Z,26.90
2017-11-05T07:14:23.542Z,27.47
2017-11-05T07:16:50.844Z,28.20
2017-11-05T07:19:18.167Z,27.90
2017-11-05T07:21:45.472Z,27.43
2017-11-05T07:24:12.791Z,28.93
2017-11-05T07:26:40.099Z,28.10
2017-11-05T07:29:07.415Z,27.20
2017-11-05T07:31:34.727Z,28.73
2017-11-05T07:34:02.964Z,26.70
2017-11-05T07:36:31.239Z,26.50
2017-11-05T07:38:58.652Z,27.83
2017-11-05T07:41:26.920Z,27.40
2017-11-05T07:43:54.288Z,27.67
2017-11-05T07:46:21.645Z,26.00
2017-11-05T07:48:48.952Z,27.03
2017-11-05T07:51:16.283Z,28.60
2017-11-05T07:53:43.605Z,26.83
2017-11-05T07:56:10.932Z,26.40
2017-11-05T07:58:38.256Z,27.03
2017-11-05T08:01:05.594Z,26.10
2017-11-05T08:03:32.913Z,26.03
2017-11-05T08:06:00.235Z,25.97
2017-11-05T08:08:27.543Z,25.90
2017-11-05T08:10:54.856Z,27.03
2017-11-05T08:13:22.180Z,26.57
2017-11-05T08:15:49.521Z,24.90
2017-11-05T08:18:16.829Z,24.97
2017-11-05T08:20:44.146Z,25.80
2017-11-05T08:23:11.481Z,25.03
2017-11-05T08:25:38.825Z,25.73
2017-11-05T08:28:06.153Z,25.27
2017-11-05T08:30:34.398Z,25.07
2017-11-05T08:33:01.712Z,23.90
2017-11-05T08:35:29.020Z,25.33
2017-11-05T08:37:56.476Z,25.00
2017-11-05T08:40:23.805Z,24.83
2017-11-05T08:42:51.138Z,25.10
2017-11-05T08:45:18.458Z,25.47
2017-11-05T08:47:46.721Z,24.00
2017-11-05T08:50:14.344Z,25.40
2017-11-05T08:52:41.686Z,24.07
2017-11-05T08:55:09.004Z,24.37
2017-11-05T08:57:36.346Z,26.70
2017-11-05T09:00:03.663Z,25.60
2017-11-05T09:02:30.964Z,24.40
2017-11-05T09:04:58.280Z,26.20
2017-11-05T09:07:25.600Z,27.27
2017-11-05T09:09:53.885Z,24.20
2017-11-05T09:12:21.197Z,24.80
2017-11-05T09:14:48.533Z,27.37
2017-11-05T09:17:15.844Z,25.20
2017-11-05T09:19:43.171Z,24.70
2017-11-05T09:22:10.471Z,24.03
2017-11-05T09:24:37.798Z,25.73
2017-11-05T09:27:05.121Z,23.47
2017-11-05T09:29:32.440Z,23.20
2017-11-05T09:31:59.755Z,23.20
2017-11-05T09:34:27.119Z,24.23
2017-11-05T09:36:54.435Z,23.30
2017-11-05T09:39:21.765Z,21.73
2017-11-05T09:41:49.244Z,24.23
2017-11-05T09:44:16.706Z,24.60
2017-11-05T09:46:44.036Z,23.50
2017-11-05T09:49:11.349Z,23.47
2017-11-05T09:51:38.670Z,23.93
2017-11-05T09:54:05.973Z,23.90
2017-11-05T09:56:33.304Z,24.50
2017-11-05T09:59:00.616Z,23.67
2017-11-05T10:01:28.871Z,22.50
2017-11-05T10:03:56.181Z,21.90
2017-11-05T10:06:23.505Z,21.97
2017-11-05T10:08:51.754Z,22.80
2017-11-05T10:11:19.205Z,22.60
2017-11-05T10:13:46.509Z,22.00
2017-11-05T10:16:13.837Z,22.57
2017-11-05T10:18:43.069Z,22.17
2017-11-05T10:21:10.445Z,21.50
2017-11-05T10:23:37.781Z,22.40
2017-11-05T10:26:05.102Z,22.20
2017-11-05T10:28:32.437Z,22.03
2017-11-05T10:30:59.749Z,21.20
2017-11-05T10:33:27.069Z,20.77
2017-11-05T10:35:54.385Z,20.90
2017-11-05T10:38:21.709Z,22.20
2017-11-05T10:40:49.168Z,21.47
2017-11-05T10:43:16.498Z,20.30
2017-11-05T10:45:43.842Z,21.60
2017-11-05T10:48:11.190Z,20.27
2017-11-05T10:50:39.488Z,20.87
2017-11-05T10:53:06.850Z,19.60
2017-11-05T10:55:34.162Z,20.93
2017-11-05T10:58:01.584Z,19.80
2017-11-05T11:00:29.802Z,21.20
2017-11-05T11:02:57.114Z,19.67
2017-11-05T11:05:24.446Z,19.77
2017-11-05T11:07:51.769Z,18.90
2017-11-05T11:10:19.256Z,20.37
2017-11-05T11:12:46.585Z,19.87
2017-11-05T11:15:13.917Z,21.10
2017-11-05T11:17:41.547Z,20.50
2017-11-05T11:20:08.873Z,20.43
2017-11-05T11:22:36.193Z,19.27
2017-11-05T11:25:03.517Z,19.87
2017-11-05T11:27:30.833Z,20.37
2017-11-05T11:29:58.161Z,19.63
2017-11-05T11:32:25.477Z,20.93
2017-11-05T11:34:52.810Z,20.10
2017-11-05T11:37:20.117Z,21.10
2017-11-05T11:39:47.450Z,20.03
2017-11-05T11:42:14.809Z,20.83
2017-11-05T11:44:42.117Z,19.93
2017-11-05T11:47:09.442Z,19.77
2017-11-05T11:49:36.751Z,18.93
2017-11-05T11:52:04.075Z,18.07
2017-11-05T11:54:31.396Z,19.00
2017-11-05T11:56:58.713Z,17.87
2017-11-05T11:59:26.025Z,18.00
2017-11-05T12:01:53.348Z,17.43
2017-11-05T12:04:20.656Z,17.80
2017-11-05T12:06:48.437Z,16.73
2017-11-05T12:09:15.762Z,15.93
2017-11-05T12:11:43.069Z,17.67
2017-11-05T12:14:10.398Z,17.77
2017-11-05T12:16:37.710Z,16.13
2017-11-05T12:19:05.041Z,17.43
2017-11-05T12:21:32.379Z,17.70
2017-11-05T12:23:59.786Z,17.80
2017-11-05T12:26:27.097Z,17.10
2017-11-05T12:28:54.427Z,17.57
2017-11-05T12:31:21.821Z,16.60
2017-11-05T12:33:49.853Z,18.00
2017-11-05T12:36:17.250Z,17.57
2017-11-05T12:38:44.628Z,17.50
2017-11-05T12:41:11.949Z,17.40
2017-11-05T12:43:39.292Z,18.50
2017-11-05T12:46:06.588Z,18.93
2017-11-05T12:48:33.921Z,18.23
2017-11-05T12:51:01.248Z,18.10
2017-11-05T12:53:28.570Z,17.07
2017-11-05T12:55:55.890Z,17.87
2017-11-05T12:58:23.209Z,17.73
2017-11-05T13:00:50.882Z,18.20
2017-11-05T13:03:18.190Z,18.10
2017-11-05T13:05:45.512Z,17.33
2017-11-05T13:08:12.838Z,19.17
2017-11-05T13:10:40.168Z,18.37
2017-11-05T13:13:07.515Z,18.27
2017-11-05T13:15:34.864Z,17.97
2017-11-05T13:18:02.187Z,19.13
2017-11-05T13:20:29.514Z,20.10
2017-11-05T13:22:56.841Z,21.13
2017-11-05T13:25:24.153Z,21.43
2017-11-05T13:27:51.481Z,19.20
2017-11-05T13:30:18.795Z,19.50
2017-11-05T13:32:46.137Z,19.30
2017-11-05T13:35:13.453Z,20.53
2017-11-05T13:37:40.835Z,19.60
2017-11-05T13:40:08.181Z,18.30
2017-11-05T13:42:35.508Z,18.50
2017-11-05T13:45:02.829Z,19.03
2017-11-05T13:47:30.185Z,20.53
2017-11-05T13:49:57.573Z,19.07
2017-11-05T13:52:24.934Z,20.10
2017-11-05T13:54:52.236Z,19.90
2017-11-05T13:57:20.501Z,19.60
2017-11-05T13:59:47.865Z,19.90
2017-11-05T14:02:15.202Z,19.73
2017-11-05T14:04:42.728Z,20.60
2017-11-05T14:07:10.053Z,20.70
2017-11-05T14:09:37.377Z,20.20
2017-11-05T14:12:04.697Z,19.90
2017-11-05T14:14:32.034Z,20.53
2017-11-05T14:16:59.353Z,20.37
2017-11-05T14:19:26.704Z,20.47
2017-11-05T14:21:54.194Z,19.90
2017-11-05T14:24:21.534Z,19.40
2017-11-05T14:26:48.853Z,19.80
2017-11-05T14:29:16.240Z,19.77
2017-11-05T14:31:43.569Z,19.00
2017-11-05T14:34:11.129Z,20.03
2017-11-05T14:36:38.457Z,19.27
2017-11-05T14:39:05.769Z,19.13
2017-11-05T14:41:33.097Z,18.77
2017-11-05T14:44:00.410Z,19.87
2017-11-05T14:46:27.769Z,21.10
2017-11-05T14:48:55.074Z,20.43
2017-11-05T14:51:22.402Z,20.27
2017-11-05T14:53:49.717Z,20.20
2017-11-05T14:56:17.054Z,20.80
2017-11-05T14:58:44.421Z,20.97
2017-11-05T15:01:11.786Z,19.87
2017-11-05T15:03:39.117Z,21.40
2017-11-05T15:06:06.449Z,19.90
2017-11-05T15:08:33.813Z,20.83
2017-11-05T15:11:01.458Z,20.80
2017-11-05T15:13:28.789Z,22.00
2017-11-05T15:15:56.117Z,20.30
2017-11-05T15:18:23.471Z,19.97
2017-11-05T15:20:50.782Z,20.00
2017-11-05T15:23:18.119Z,20.57
2017-11-05T15:25:45.588Z,23.50
2017-11-05T15:28:12.941Z,22.47
2017-11-05T15:30:40.285Z,24.10
2017-11-05T15:33:07.602Z,25.63
2017-11-05T15:35:34.916Z,27.63
2017-11-05T15:38:02.237Z,28.10
2017-11-05T15:40:29.549Z,28.77
2017-11-05T15:42:56.868Z,29.27
2017-11-05T15:45:24.388Z,40.00
2017-11-05T15:47:51.690Z,29.30
2017-11-05T15:50:19.012Z,30.17
2017-11-05T15:52:46.329Z,27.27
2017-11-05T15:55:13.653Z,26.30
2017-11-05T15:57:40.962Z,24.83
2017-11-05T16:00:08.550Z,25.17
2017-11-05T16:02:36.788Z,25.17
2017-11-05T16:05:04.114Z,25.77
2017-11-05T16:07:31.448Z,25.70
2017-11-05T16:09:58.778Z,25.17
2017-11-05T16:12:26.116Z,26.17
2017-11-05T16:14:53.451Z,25.73
2017-11-05T16:17:20.760Z,28.90
2017-11-05T16:19:48.118Z,32.60
2017-11-05T16:22:15.422Z,28.67
2017-11-05T16:24:42.749Z,30.60
2017-11-05T16:27:10.102Z,30.33
2017-11-05T16:29:37.430Z,28.87
2017-11-05T16:32:04.742Z,29.03
2017-11-05T16:34:32.078Z,29.93
2017-11-05T16:36:59.717Z,30.73
2017-11-05T16:39:27.094Z,32.40
2017-11-05T16:41:54.452Z,32.10
2017-11-05T16:44:21.750Z,32.40
2017-11-05T16:46:49.077Z,33.43
2017-11-05T16:49:16.399Z,36.17
2017-11-05T16:51:43.733Z,34.43
2017-11-05T16:54:11.080Z,33.30
2017-11-05T16:56:38.457Z,32.40
2017-11-05T16:59:05.761Z,34.20
2017-11-05T17:01:33.109Z,33.37
2017-11-05T17:04:00.444Z,32.83
2017-11-05T17:06:27.769Z,31.37
2017-11-05T17:08:55.133Z,22.03
2017-11-05T17:11:22.516Z,25.20
2017-11-05T17:13:49.824Z,17.27
2017-11-05T17:16:17.305Z,13.03
2017-11-05T17:18:44.626Z,10.90
2017-11-05T17:21:11.929Z,8.05
2017-11-05T17:23:39.241Z,5.33
2017-11-05T17:26:06.568Z,5.10
2017-11-05T17:28:33.886Z,5.50
2017-11-05T17:31:01.186Z,5.47
2017-11-05T17:33:28.501Z,4.90
2017-11-05T17:35:55.829Z,5.80
2017-11-05T17:38:23.148Z,4.80
2017-11-05T17:40:50.769Z,4.40
2017-11-05T17:43:18.093Z,4.43
2017-11-05T17:45:45.420Z,5.23
2017-11-05T17:48:12.729Z,5.47
2017-11-05T17:50:40.050Z,5.63
2017-11-05T17:53:07.373Z,5.43
2017-11-05T17:55:34.694Z,5.93
2017-11-05T17:58:01.991Z,5.80
2017-11-05T18:00:29.300Z,5.50
2017-11-05T18:02:56.609Z,6.80
2017-11-05T18:05:23.933Z,7.53
2017-11-05T18:07:51.234Z,6.13
2017-11-05T18:10:18.550Z,7.40
2017-11-05T18:12:45.856Z,7.60
2017-11-05T18:15:13.176Z,7.63
2017-11-05T18:17:40.499Z,7.30
2017-11-05T18:20:07.818Z,8.17
2017-11-05T18:22:35.147Z,6.80
2017-11-05T18:25:02.466Z,7.77
2017-11-05T18:27:29.797Z,7.60
2017-11-05T18:29:58.114Z,7.20
2017-11-05T18:32:25.442Z,6.63
2017-11-05T18:34:52.757Z,6.53
2017-11-05T18:37:20.074Z,5.30
2017-11-05T18:39:47.378Z,6.40
2017-11-05T18:42:14.730Z,5.63
2017-11-05T18:44:42.077Z,6.60
2017-11-05T18:47:09.396Z,6.20
2017-11-05T18:49:36.709Z,6.80
2017-11-05T18:52:04.029Z,6.73
2017-11-05T18:54:31.357Z,6.80
2017-11-05T18:56:58.737Z,5.27
2017-11-05T18:59:26.041Z,5.63
2017-11-05T19:01:53.376Z,5.57
2017-11-05T19:04:20.688Z,5.50
2017-11-05T19:06:48.037Z,4.87
2017-11-05T19:09:15.405Z,5.17
2017-11-05T19:11:42.734Z,5.83
2017-11-05T19:14:10.041Z,5.60
2017-11-05T19:16:37.366Z,7.27
2017-11-05T19:19:04.689Z,8.33
2017-11-05T19:21:32.411Z,7.53
2017-11-05T19:23:59.810Z,6.83
2017-11-05T19:26:27.109Z,6.67
2017-11-05T19:28:54.678Z,7.27
2017-11-05T19:31:22.305Z,6.70
2017-11-05T19:33:50.004Z,5.37
2017-11-05T19:36:17.300Z,6.80
2017-11-05T19:38:44.655Z,5.97
2017-11-05T19:41:11.961Z,6.23
2017-11-05T19:43:39.298Z,5.47
2017-11-05T19:46:06.649Z,5.17
2017-11-05T19:48:33.986Z,5.40
2017-11-05T19:51:01.300Z,6.00
2017-11-05T19:53:28.630Z,5.47
2017-11-05T19:55:55.956Z,5.23
2017-11-05T19:58:23.277Z,4.63
2017-11-05T20:00:51.522Z,4.97
2017-11-05T20:03:18.835Z,5.43
2017-11-05T20:05:47.053Z,5.70
2017-11-05T20:08:14.404Z,6.83
2017-11-05T20:10:41.725Z,5.60
2017-11-05T20:13:09.035Z,5.40
2017-11-05T20:15:36.360Z,6.47
2017-11-05T20:18:03.667Z,6.55
2017-11-05T20:20:30.977Z,6.50
2017-11-05T20:22:59.449Z,5.97
2017-11-05T20:25:26.825Z,5.83
2017-11-05T20:27:54.154Z,6.33
2017-11-05T20:30:21.708Z,5.87
2017-11-05T20:32:49.018Z,6.80
2017-11-05T20:35:16.329Z,7.50
2017-11-05T20:37:43.656Z,7.73
2017-11-05T20:40:10.960Z,7.77
2017-11-05T20:42:38.295Z,6.93
2017-11-05T20:45:05.596Z,7.60
2017-11-05T20:47:32.944Z,7.80
2017-11-05T20:50:00.294Z,8.93
2017-11-05T20:52:27.614Z,9.37
2017-11-05T20:54:54.953Z,9.10
2017-11-05T20:57:22.271Z,9.20
2017-11-05T20:59:49.570Z,9.30
2017-11-05T21:02:16.951Z,8.93
2017-11-05T21:04:44.249Z,8.63
2017-11-05T21:07:11.610Z,9.27
2017-11-05T21:09:38.924Z,8.30
2017-11-05T21:12:06.250Z,9.10
2017-11-05T21:14:33.585Z,10.20
2017-11-05T21:17:00.906Z,9.37
2017-11-05T21:19:28.202Z,9.80
2017-11-05T21:21:55.523Z,9.47
2017-11-05T21:24:22.852Z,8.97
2017-11-05T21:26:50.161Z,9.17
2017-11-05T21:29:17.485Z,9.63
2017-11-05T21:31:44.794Z,9.37
2017-11-05T21:34:12.117Z,10.97
2017-11-05T21:36:39.430Z,10.03
2017-11-05T21:39:06.791Z,10.20
2017-11-05T21:41:34.146Z,10.80
2017-11-05T21:44:01.510Z,10.27
2017-11-05T21:46:28.826Z,9.70
2017-11-05T21:48:56.162Z,10.27
2017-11-05T21:51:23.498Z,11.63
2017-11-05T21:53:50.828Z,10.37
2017-11-05T21:56:18.146Z,11.10
2017-11-05T21:58:45.493Z,10.83
2017-11-05T22:01:12.834Z,11.37
2017-11-05T22:03:40.150Z,10.87
2017-11-05T22:06:07.485Z,11.37
2017-11-05T22:08:34.790Z,11.93
2017-11-05T22:11:02.131Z,11.43
2017-11-05T22:13:29.454Z,12.80
2017-11-05T22:15:56.798Z,12.57
2017-11-05T22:18:24.103Z,13.83
2017-11-05T22:20:51.450Z,13.50
2017-11-05T22:23:18.798Z,11.40
2017-11-05T22:25:46.125Z,11.60
2017-11-05T22:28:13.437Z,12.30
2017-11-05T22:30:40.769Z,12.20
2017-11-05T22:33:08.102Z,12.40
2017-11-05T22:35:35.440Z,13.27
2017-11-05T22:38:02.770Z,13.43
2017-11-05T22:40:30.073Z,12.83
2017-11-05T22:42:57.401Z,12.83
2017-11-05T22:45:24.851Z,12.90
2017-11-05T22:47:52.214Z,12.20
2017-11-05T22:50:19.561Z,10.93
2017-11-05T22:52:46.897Z,11.80
2017-11-05T22:55:14.209Z,10.77
2017-11-05T22:57:41.590Z,11.40
2017-11-05T23:00:08.953Z,12.20
2017-11-05T23:02:36.292Z,11.50
2017-11-05T23:05:03.600Z,11.97
2017-11-05T23:07:30.938Z,11.10
2017-11-05T23:09:58.265Z,11.10
2017-11-05T23:12:26.517Z,10.83
2017-11-05T23:14:53.876Z,11.37
2017-11-05T23:17:21.197Z,11.10
2017-11-05T23:19:48.520Z,11.63
2017-11-05T23:22:15.853Z,10.70
2017-11-05T23:24:43.186Z,11.00
2017-11-05T23:27:11.953Z,9.97
2017-11-05T23:29:39.276Z,10.33
2017-11-05T23:32:06.596Z,10.97
2017-11-05T23:34:34.013Z,10.40
2017-11-05T23:37:01.327Z,10.93
2017-11-05T23:39:28.652Z,10.60
2017-11-05T23:41:55.980Z,10.97
2017-11-05T23:44:23.354Z,10.57
2017-11-05T23:46:50.698Z,11.30
2017-11-05T23:49:18.005Z,10.97
2017-11-05T23:51:45.333Z,11.63
2017-11-05T23:54:12.645Z,11.00
2017-11-05T23:56:39.985Z,9.83
2017-11-05T23:59:07.289Z,11.13
